5 day graph

You are here

Error message

  • Notice: Trying to access array offset on value of type int in DrupalRequestSanitizer::stripDangerousValues() (line 102 of /home/twolittl/public_html/cms/includes/request-sanitizer.inc).
  • Notice: Trying to access array offset on value of type int in DrupalRequestSanitizer::stripDangerousValues() (line 102 of /home/twolittl/public_html/cms/includes/request-sanitizer.inc).
  • Notice: Trying to access array offset on value of type int in DrupalRequestSanitizer::stripDangerousValues() (line 102 of /home/twolittl/public_html/cms/includes/request-sanitizer.inc).
  • Notice: Trying to access array offset on value of type int in DrupalRequestSanitizer::stripDangerousValues() (line 102 of /home/twolittl/public_html/cms/includes/request-sanitizer.inc).
  • Notice: Trying to access array offset on value of type int in DrupalRequestSanitizer::stripDangerousValues() (line 102 of /home/twolittl/public_html/cms/includes/request-sanitizer.inc).
  • Notice: Trying to access array offset on value of type int in DrupalRequestSanitizer::stripDangerousValues() (line 102 of /home/twolittl/public_html/cms/includes/request-sanitizer.inc).
  • Notice: Trying to access array offset on value of type int in DrupalRequestSanitizer::stripDangerousValues() (line 102 of /home/twolittl/public_html/cms/includes/request-sanitizer.inc).
  • Notice: Trying to access array offset on value of type int in DrupalRequestSanitizer::stripDangerousValues() (line 102 of /home/twolittl/public_html/cms/includes/request-sanitizer.inc).
  • Notice: Trying to access array offset on value of type int in DrupalRequestSanitizer::stripDangerousValues() (line 102 of /home/twolittl/public_html/cms/includes/request-sanitizer.inc).
  • Notice: Trying to access array offset on value of type int in DrupalRequestSanitizer::stripDangerousValues() (line 102 of /home/twolittl/public_html/cms/includes/request-sanitizer.inc).
  • Deprecated function: Function get_magic_quotes_gpc() is deprecated in phpMyEdit->get_cgi_var() (line 1773 of /home/twolittl/public_html/phpMyEdit.class.php).
  • Deprecated function: implode(): Passing glue string after array is deprecated. Swap the parameters in drupal_get_feeds() (line 394 of /home/twolittl/public_html/cms/includes/common.inc).

Hive Data

Page: 1 of 16645  Records: 998690

Row Date Time Hive Temp Hive Humidity Outside Temp Outside Humidity Bottom Board Temp Outside Wall Temp Electronics Temp Light Levels inHG Fan Heat Cover Notes
Clear Sorted By: Outside Wall Temp ascending, Date Time (sql) ascending, Light Levels ascending, Row descending
View 369153 Feb 19 2015 5:37:40pm 79.16 55 50 86 55.4 -196.6 73.4 228 29.49 0 0 0 NA
View 369154 Feb 19 2015 5:38:42pm 79.16 54 50 86 55.4 -196.6 73.4 228 29.49 0 0 0 NA
View 369155 Feb 19 2015 5:39:43pm 79.16 55 49.82 86 55.4 -196.6 73.4 229 29.49 0 0 0 NA
View 370059 Feb 20 2015 8:49:53am 74.84 59 49.28 92 52.7 -196.6 68 236 29.54 0 0 0 NA
View 370060 Feb 20 2015 8:50:54am 74.84 59 49.28 93 52.7 -196.6 68 236 29.54 0 0 0 NA
View 370448 Feb 20 2015 3:21:14pm 75.92 56 53.24 76 56.3 -196.6 73.4 226 29.53 0 0 0 NA
View 370449 Feb 20 2015 3:22:15pm 75.74 56 53.06 75 56.3 -196.6 73.4 226 29.53 0 0 0 NA
View 370450 Feb 20 2015 3:23:16pm 75.74 56 53.06 76 56.3 -196.6 73.4 226 29.53 0 0 0 NA
View 370451 Feb 20 2015 3:24:18pm 75.74 55 52.88 76 56.3 -196.6 73.4 226 29.53 0 0 0 NA
View 370452 Feb 20 2015 3:25:19pm 75.74 56 52.88 76 56.3 -196.6 73.4 226 29.53 0 0 0 NA
View 370453 Feb 20 2015 3:26:19pm 75.74 56 52.88 77 56.3 -196.6 73.4 226 29.53 0 0 0 NA
View 370454 Feb 20 2015 3:27:20pm 75.56 56 52.7 76 56.3 -196.6 73.4 226 29.53 0 0 0 NA
View 370536 Feb 20 2015 4:49:51pm 75.74 59 51.44 79 55.85 -196.6 73.4 227 29.51 0 0 0 NA
View 377267 Feb 25 2015 6:34:49pm 75.02 54 47.84 88 52.25 -196.6 68 237 29.55 0 0 0 NA
View 377268 Feb 25 2015 6:35:49pm 75.02 54 48.02 88 51.8 -196.6 68 237 29.55 0 0 0 NA
View 377269 Feb 25 2015 6:36:50pm 75.02 54 48.02 88 52.25 -196.6 68 237 29.55 0 0 0 NA
View 377270 Feb 25 2015 6:37:51pm 75.02 53 47.84 88 52.25 -196.6 68 237 29.55 0 0 0 NA
View 377271 Feb 25 2015 6:38:53pm 75.02 54 48.02 89 52.25 -196.6 68 237 29.55 0 0 0 NA
View 377272 Feb 25 2015 6:39:54pm 75.02 55 48.02 88 51.8 -196.6 68 237 29.55 0 0 0 NA
View 377273 Feb 25 2015 6:40:55pm 75.02 56 48.02 88 51.8 -196.6 68 237 29.55 0 0 0 NA
View 377274 Feb 25 2015 6:41:55pm 75.2 58 48.02 88 51.8 -196.6 68 237 29.55 0 0 0 NA
View 377275 Feb 25 2015 6:42:57pm 75.2 54 48.02 88 51.8 -196.6 68 237 29.55 0 0 0 NA
View 377276 Feb 25 2015 6:43:58pm 75.2 54 48.02 88 51.8 -196.6 68 237 29.55 0 0 0 NA
View 377277 Feb 25 2015 6:44:59pm 75.2 55 48.02 88 51.8 -196.6 68 237 29.55 0 0 0 NA
View 377278 Feb 25 2015 6:46:00pm 75.2 53 48.02 89 51.8 -196.6 68 236 29.55 0 0 0 NA
View 377279 Feb 25 2015 6:47:02pm 75.2 55 48.02 89 51.8 -196.6 68 237 29.55 0 0 0 NA
View 377280 Feb 25 2015 6:48:03pm 75.2 57 48.02 89 51.8 -196.6 68 237 29.56 0 0 0 NA
View 377281 Feb 25 2015 6:49:03pm 75.2 58 48.02 89 51.8 -196.6 68 237 29.55 0 0 0 NA
View 377282 Feb 25 2015 6:50:04pm 75.2 59 47.84 88 51.8 -196.6 68 237 29.55 0 0 0 NA
View 377283 Feb 25 2015 6:51:05pm 75.2 58 48.02 89 51.8 -196.6 68 237 29.55 0 0 0 NA
View 377284 Feb 25 2015 6:52:07pm 75.38 58 48.02 88 51.8 -196.6 68 237 29.55 0 0 0 NA
View 377285 Feb 25 2015 6:53:08pm 75.38 57 48.02 89 51.8 -196.6 68 237 29.55 0 0 0 NA
View 377286 Feb 25 2015 6:54:09pm 75.56 56 47.84 88 51.8 -196.6 68 237 29.55 0 0 0 NA
View 377287 Feb 25 2015 6:55:09pm 75.56 52 48.02 88 51.8 -196.6 68 237 29.55 0 0 0 NA
View 377288 Feb 25 2015 6:56:10pm 75.38 56 48.02 88 51.8 -196.6 68 237 29.55 0 0 0 NA
View 377289 Feb 25 2015 6:57:12pm 75.38 55 48.02 88 51.8 -196.6 68 237 29.55 0 0 0 NA
View 377290 Feb 25 2015 6:58:13pm 75.38 52 47.84 88 51.8 -196.6 68 237 29.55 0 0 0 NA
View 377291 Feb 25 2015 6:59:14pm 75.38 53 47.84 89 51.8 -196.6 68 237 29.55 0 0 0 NA
View 377292 Feb 25 2015 7:00:16pm 75.2 51 47.84 89 51.8 -196.6 68 237 29.55 0 0 0 NA
View 377293 Feb 25 2015 7:01:15pm 75.2 53 47.84 89 51.8 -196.6 68 237 29.55 0 0 0 NA
View 377294 Feb 25 2015 7:02:17pm 75.2 56 47.84 89 51.8 -196.6 68 237 29.55 0 0 0 NA
View 377295 Feb 25 2015 7:03:18pm 75.2 52 47.84 89 51.8 -196.6 68 237 29.55 0 0 0 NA
View 377296 Feb 25 2015 7:04:19pm 75.02 51 47.84 89 51.8 -196.6 68 236 29.55 0 0 0 NA
View 377297 Feb 25 2015 7:05:21pm 75.02 51 47.66 89 51.8 -196.6 68 237 29.55 0 0 0 NA
View 377298 Feb 25 2015 7:06:22pm 75.02 56 47.66 89 51.8 -196.6 68 237 29.55 0 0 0 NA
View 377299 Feb 25 2015 7:07:23pm 75.02 58 47.66 89 51.8 -196.6 68 237 29.55 0 0 0 NA
View 377300 Feb 25 2015 7:08:23pm 75.2 58 47.66 89 51.8 -196.6 68 237 29.55 0 0 0 NA
View 377301 Feb 25 2015 7:09:24pm 75.2 57 47.66 89 51.8 -196.6 68 237 29.55 0 0 0 NA
View 377302 Feb 25 2015 7:10:26pm 75.2 58 47.66 89 51.8 -196.6 68 237 29.55 0 0 0 NA
View 377303 Feb 25 2015 7:11:27pm 75.38 58 47.66 89 51.8 -196.6 68 237 29.55 0 0 0 NA
View 377304 Feb 25 2015 7:12:28pm 75.38 56 47.66 89 51.8 -196.6 68 237 29.55 0 0 0 NA
View 377305 Feb 25 2015 7:13:30pm 75.38 56 47.84 89 51.8 -196.6 68 237 29.55 0 0 0 NA
View 377306 Feb 25 2015 7:14:31pm 75.38 55 47.84 89 51.8 -196.6 68 237 29.54 0 0 0 NA
View 377307 Feb 25 2015 7:15:31pm 75.38 56 47.84 89 51.8 -196.6 68 237 29.54 0 0 0 NA
View 377308 Feb 25 2015 7:16:32pm 75.38 57 47.84 89 51.8 -196.6 68 237 29.54 0 0 0 NA
View 377309 Feb 25 2015 7:17:33pm 75.38 51 47.66 89 51.8 -196.6 68 237 29.54 0 0 0 NA
View 377310 Feb 25 2015 7:18:35pm 75.2 53 47.84 89 51.8 -196.6 68 237 29.54 0 0 0 NA
View 377311 Feb 25 2015 7:19:36pm 75.38 55 47.84 89 51.8 -196.6 68 237 29.54 0 0 0 NA
View 377312 Feb 25 2015 7:20:37pm 75.2 55 47.84 89 51.8 -196.6 68 237 29.54 0 0 0 NA
View 377313 Feb 25 2015 7:21:37pm 75.2 55 47.84 89 51.8 -196.6 68 237 29.54 0 0 0 NA